createdAt,value
2023-02-26T00:01:14.708Z,1.05
2023-02-26T00:03:43.386Z,1.10
2023-02-26T00:06:12.088Z,1.30
2023-02-26T00:08:40.602Z,1.30
2023-02-26T00:11:10.108Z,1.25
2023-02-26T00:13:41.000Z,1.40
2023-02-26T00:16:25.029Z,1.38
2023-02-26T00:18:54.283Z,1.20
2023-02-26T00:21:24.995Z,1.30
2023-02-26T00:23:53.698Z,1.30
2023-02-26T00:26:24.145Z,1.20
2023-02-26T00:28:53.240Z,1.23
2023-02-26T00:31:24.980Z,1.15
2023-02-26T00:33:54.513Z,1.30
2023-02-26T00:36:26.595Z,1.23
2023-02-26T00:39:08.138Z,1.15
2023-02-26T00:41:38.818Z,1.13
2023-02-26T00:44:07.874Z,1.25
2023-02-26T00:46:46.463Z,1.20
2023-02-26T00:49:28.221Z,1.20
2023-02-26T00:51:59.548Z,1.00
2023-02-26T00:54:30.697Z,1.20
2023-02-26T00:57:00.396Z,1.35
2023-02-26T00:59:29.502Z,1.02
2023-02-26T01:01:59.381Z,1.33
2023-02-26T01:04:28.507Z,1.58
2023-02-26T01:06:59.080Z,1.23
2023-02-26T01:09:29.862Z,1.20
2023-02-26T01:12:01.518Z,1.10
2023-02-26T01:14:31.765Z,1.10
2023-02-26T01:17:07.841Z,1.10
2023-02-26T01:19:43.225Z,1.50
2023-02-26T01:22:17.113Z,1.20
2023-02-26T01:24:49.297Z,1.05
2023-02-26T01:27:18.235Z,1.30
2023-02-26T01:29:46.960Z,1.00
2023-02-26T01:32:24.376Z,1.23
2023-02-26T01:34:57.838Z,1.20
2023-02-26T01:37:34.687Z,1.20
2023-02-26T01:40:30.883Z,1.20
2023-02-26T01:43:05.682Z,1.20
2023-02-26T01:45:37.076Z,1.20
2023-02-26T01:48:12.688Z,1.08
2023-02-26T01:50:41.781Z,1.25
2023-02-26T01:53:22.257Z,1.17
2023-02-26T01:55:55.638Z,1.13
2023-02-26T01:58:26.283Z,1.10
2023-02-26T02:00:54.693Z,1.05
2023-02-26T02:03:27.251Z,1.20
2023-02-26T02:05:59.559Z,1.00
2023-02-26T02:08:28.066Z,1.00
2023-02-26T02:10:56.625Z,1.10
2023-02-26T02:13:36.788Z,1.20
2023-02-26T02:16:16.266Z,1.00
2023-02-26T02:18:54.667Z,1.40
2023-02-26T02:21:52.174Z,1.05
2023-02-26T02:24:30.001Z,1.10
2023-02-26T02:27:09.150Z,1.00
2023-02-26T02:30:07.147Z,1.00
2023-02-26T02:32:41.057Z,1.10
2023-02-26T02:35:16.378Z,1.00
2023-02-26T02:37:49.612Z,1.10
2023-02-26T02:40:23.274Z,1.20
2023-02-26T02:42:57.518Z,1.30
2023-02-26T02:45:32.123Z,1.17
2023-02-26T02:50:36.033Z,1.08
2023-02-26T02:53:12.256Z,1.33
2023-02-26T02:55:47.620Z,1.02
2023-02-26T02:58:20.046Z,1.20
2023-02-26T03:00:51.044Z,1.20
2023-02-26T03:03:29.112Z,1.00
2023-02-26T03:05:57.652Z,0.90
2023-02-26T03:08:31.238Z,0.98
2023-02-26T03:10:59.875Z,0.90
2023-02-26T03:13:28.819Z,1.10
2023-02-26T03:16:19.379Z,1.15
2023-02-26T03:18:59.490Z,1.00
2023-02-26T03:21:45.973Z,0.90
2023-02-26T03:24:28.294Z,0.85
2023-02-26T03:27:01.989Z,1.00
2023-02-26T03:29:39.300Z,1.10
2023-02-26T03:32:13.025Z,1.10
2023-02-26T03:34:47.573Z,0.80
2023-02-26T03:37:22.180Z,0.90
2023-02-26T03:42:26.389Z,0.90
2023-02-26T03:45:02.687Z,0.93
2023-02-26T03:47:32.965Z,1.00
2023-02-26T03:50:08.031Z,1.00
2023-02-26T03:52:49.889Z,0.98
2023-02-26T03:55:33.378Z,0.98
2023-02-26T03:58:20.034Z,0.93
2023-02-26T04:01:04.466Z,1.10
2023-02-26T04:03:38.167Z,0.90
2023-02-26T04:06:08.921Z,0.90
2023-02-26T04:08:37.864Z,0.90
2023-02-26T04:11:10.025Z,0.90
2023-02-26T04:13:38.622Z,0.82
2023-02-26T04:16:07.875Z,1.10
2023-02-26T04:18:37.067Z,0.98
2023-02-26T04:21:08.588Z,0.90
2023-02-26T04:23:37.038Z,0.80
2023-02-26T04:26:06.051Z,0.90
2023-02-26T04:28:37.728Z,0.90
2023-02-26T04:31:06.617Z,1.00
2023-02-26T04:33:35.206Z,0.93
2023-02-26T04:36:04.866Z,0.90
2023-02-26T04:38:34.775Z,1.08
2023-02-26T04:41:03.443Z,1.00
2023-02-26T04:43:31.961Z,0.80
2023-02-26T04:46:20.390Z,0.90
2023-02-26T04:48:49.078Z,0.98
2023-02-26T04:51:18.120Z,0.95
2023-02-26T04:53:48.202Z,1.00
2023-02-26T04:56:16.972Z,0.90
2023-02-26T04:58:46.481Z,1.10
2023-02-26T05:01:20.007Z,1.10
2023-02-26T05:03:49.989Z,1.10
2023-02-26T05:06:18.446Z,1.00
2023-02-26T05:08:48.223Z,1.00
2023-02-26T05:11:16.750Z,1.00
2023-02-26T05:13:45.209Z,1.05
2023-02-26T05:16:13.809Z,1.10
2023-02-26T05:18:42.847Z,1.20
2023-02-26T05:21:12.532Z,1.02
2023-02-26T05:23:41.086Z,1.08
2023-02-26T05:26:11.012Z,1.10
2023-02-26T05:28:39.499Z,1.10
2023-02-26T05:31:08.562Z,1.10
2023-02-26T05:33:37.306Z,1.23
2023-02-26T05:36:07.086Z,1.00
2023-02-26T05:38:35.615Z,1.00
2023-02-26T05:41:04.425Z,0.95
2023-02-26T05:43:34.637Z,1.10
2023-02-26T05:46:03.216Z,1.15
2023-02-26T05:48:31.882Z,1.00
2023-02-26T05:51:00.493Z,1.08
2023-02-26T05:53:29.685Z,1.20
2023-02-26T05:55:58.213Z,1.10
2023-02-26T05:58:26.684Z,1.00
2023-02-26T06:00:59.553Z,1.10
2023-02-26T06:03:28.032Z,1.30
2023-02-26T06:05:56.753Z,1.00
2023-02-26T06:08:25.225Z,1.10
2023-02-26T06:10:53.691Z,1.08
2023-02-26T06:13:22.184Z,1.00
2023-02-26T06:15:52.216Z,1.10
2023-02-26T06:18:21.995Z,1.08
2023-02-26T06:20:50.530Z,1.20
2023-02-26T06:23:19.010Z,1.25
2023-02-26T06:25:47.568Z,1.20
2023-02-26T06:28:15.970Z,1.05
2023-02-26T06:30:44.378Z,1.10
2023-02-26T06:33:12.908Z,1.20
2023-02-26T06:35:42.795Z,1.10
2023-02-26T06:38:11.275Z,1.20
2023-02-26T06:40:39.805Z,1.42
2023-02-26T06:43:08.501Z,1.13
2023-02-26T06:45:37.266Z,1.30
2023-02-26T06:48:05.777Z,1.20
2023-02-26T06:50:34.248Z,1.20
2023-02-26T06:53:04.535Z,1.48
2023-02-26T06:55:33.063Z,1.15
2023-02-26T06:58:01.509Z,1.20
2023-02-26T07:00:30.093Z,1.30
2023-02-26T07:02:58.618Z,1.35
2023-02-26T07:05:27.151Z,1.20
2023-02-26T07:07:56.046Z,1.50
2023-02-26T07:10:26.009Z,1.48
2023-02-26T07:12:54.414Z,1.30
2023-02-26T07:15:22.861Z,1.38
2023-02-26T07:17:51.316Z,1.50
2023-02-26T07:20:19.864Z,1.20
2023-02-26T07:22:48.355Z,1.52
2023-02-26T07:25:16.854Z,1.33
2023-02-26T07:27:46.693Z,1.40
2023-02-26T07:30:15.979Z,1.15
2023-02-26T07:32:44.865Z,1.30
2023-02-26T07:35:13.647Z,1.33
2023-02-26T07:37:42.135Z,1.50
2023-02-26T07:40:11.972Z,1.50
2023-02-26T07:42:40.510Z,1.20
2023-02-26T07:45:11.070Z,1.40
2023-02-26T07:47:39.830Z,1.38
2023-02-26T07:50:08.995Z,1.50
2023-02-26T07:52:37.536Z,1.60
2023-02-26T07:55:06.823Z,1.30
2023-02-26T07:57:35.253Z,1.10
2023-02-26T08:00:04.836Z,1.10
2023-02-26T08:02:42.197Z,4.65
2023-02-26T08:05:11.193Z,1.95
2023-02-26T08:07:39.649Z,1.95
2023-02-26T08:10:09.754Z,3.05
2023-02-26T08:12:38.295Z,2.00
2023-02-26T08:15:07.768Z,2.50
2023-02-26T08:17:36.328Z,2.30
2023-02-26T08:20:07.219Z,2.00
2023-02-26T08:22:35.907Z,1.98
2023-02-26T08:25:04.629Z,1.90
2023-02-26T08:27:33.156Z,1.50
2023-02-26T08:30:01.721Z,1.60
2023-02-26T08:32:30.322Z,1.40
2023-02-26T08:34:58.804Z,1.60
2023-02-26T08:37:28.799Z,1.50
2023-02-26T08:39:57.338Z,1.48
2023-02-26T08:42:25.694Z,1.88
2023-02-26T08:44:54.145Z,1.60
2023-02-26T08:47:28.819Z,1.48
2023-02-26T08:49:59.117Z,1.30
2023-02-26T08:52:28.968Z,1.30
2023-02-26T08:54:57.438Z,1.30
2023-02-26T08:57:26.090Z,1.27
2023-02-26T08:59:54.788Z,1.80
2023-02-26T09:02:23.310Z,1.50
2023-02-26T09:04:51.735Z,1.20
2023-02-26T09:07:20.114Z,1.30
2023-02-26T09:09:49.934Z,1.40
2023-02-26T09:12:18.454Z,1.40
2023-02-26T09:14:47.167Z,1.52
2023-02-26T09:17:16.319Z,1.60
2023-02-26T09:19:44.781Z,1.30
2023-02-26T09:22:13.404Z,1.60
2023-02-26T09:24:41.875Z,2.05
2023-02-26T09:27:11.798Z,1.33
2023-02-26T09:29:40.275Z,1.20
2023-02-26T09:32:08.978Z,1.30
2023-02-26T09:34:38.396Z,1.20
2023-02-26T09:37:09.683Z,1.20
2023-02-26T09:39:38.401Z,1.23
2023-02-26T09:42:17.076Z,1.40
2023-02-26T09:44:45.963Z,1.30
2023-02-26T09:47:18.968Z,1.52
2023-02-26T09:49:54.333Z,1.60
2023-02-26T09:52:26.839Z,1.50
2023-02-26T09:55:01.778Z,1.38
2023-02-26T09:57:36.208Z,1.60
2023-02-26T10:00:08.622Z,1.55
2023-02-26T10:02:49.744Z,7.07
2023-02-26T10:05:21.317Z,4.78
2023-02-26T10:07:58.027Z,5.72
2023-02-26T10:10:36.514Z,4.68
2023-02-26T10:13:06.607Z,4.60
2023-02-26T10:15:41.362Z,4.70
2023-02-26T10:18:15.281Z,6.53
2023-02-26T10:20:53.318Z,1.90
2023-02-26T10:23:28.716Z,2.10
2023-02-26T10:26:04.180Z,3.00
2023-02-26T10:28:48.653Z,1.40
2023-02-26T10:31:25.639Z,1.50
2023-02-26T10:34:07.456Z,1.40
2023-02-26T10:36:45.418Z,1.42
2023-02-26T10:39:24.681Z,1.52
2023-02-26T10:41:54.089Z,1.38
2023-02-26T10:44:31.295Z,6.95
2023-02-26T10:47:09.352Z,6.30
2023-02-26T10:49:53.193Z,2.55
2023-02-26T10:52:25.530Z,8.30
2023-02-26T10:55:23.367Z,1.63
2023-02-26T10:57:58.000Z,1.55
2023-02-26T11:00:27.974Z,1.50
2023-02-26T11:02:58.343Z,1.40
2023-02-26T11:05:30.187Z,1.42
2023-02-26T11:08:02.532Z,1.50
2023-02-26T11:10:41.776Z,1.80
2023-02-26T11:13:10.920Z,1.50
2023-02-26T11:15:41.572Z,1.20
2023-02-26T11:18:17.011Z,1.23
2023-02-26T11:20:47.992Z,1.20
2023-02-26T11:23:22.037Z,1.20
2023-02-26T11:25:56.168Z,1.10
2023-02-26T11:28:31.520Z,1.00
2023-02-26T11:31:06.798Z,1.00
2023-02-26T11:33:39.279Z,1.00
2023-02-26T11:36:13.202Z,1.00
2023-02-26T11:38:45.880Z,1.10
2023-02-26T11:41:14.981Z,1.20
2023-02-26T11:43:46.031Z,1.00
2023-02-26T11:46:16.901Z,0.90
2023-02-26T11:48:48.530Z,0.90
2023-02-26T11:51:21.371Z,0.98
2023-02-26T11:53:52.685Z,1.20
2023-02-26T11:56:26.625Z,1.00
2023-02-26T11:58:56.453Z,1.25
2023-02-26T12:01:30.561Z,1.10
2023-02-26T12:04:02.378Z,1.05
2023-02-26T12:06:31.445Z,1.00
2023-02-26T12:09:00.148Z,1.00
2023-02-26T12:11:52.435Z,0.93
2023-02-26T12:14:59.120Z,1.20
2023-02-26T12:17:53.338Z,1.08
2023-02-26T12:20:28.331Z,0.90
2023-02-26T12:23:11.601Z,1.00
2023-02-26T12:26:14.256Z,0.80
2023-02-26T12:29:12.279Z,1.00
2023-02-26T12:31:58.355Z,1.00
2023-02-26T12:34:39.967Z,1.00
2023-02-26T12:37:37.485Z,0.93
2023-02-26T12:40:19.103Z,1.00
2023-02-26T12:42:58.748Z,1.02
2023-02-26T12:45:43.329Z,0.93
2023-02-26T12:48:51.715Z,0.82
2023-02-26T12:51:35.244Z,1.10
2023-02-26T12:54:42.038Z,1.15
2023-02-26T12:57:28.912Z,0.90
2023-02-26T13:00:24.050Z,2.28
2023-02-26T13:03:36.763Z,1.45
2023-02-26T13:06:33.847Z,1.73
2023-02-26T13:09:09.110Z,1.40
2023-02-26T13:11:51.710Z,2.00
2023-02-26T13:14:33.960Z,1.20
2023-02-26T13:17:09.139Z,2.03
2023-02-26T13:19:44.669Z,1.23
2023-02-26T13:22:21.530Z,1.30
2023-02-26T13:24:56.096Z,1.40
2023-02-26T13:27:28.466Z,2.10
2023-02-26T13:30:19.109Z,1.65
2023-02-26T13:32:50.094Z,2.50
2023-02-26T13:35:23.079Z,1.52
2023-02-26T13:37:55.514Z,1.20
2023-02-26T13:40:39.979Z,5.07
2023-02-26T13:43:21.784Z,1.85
2023-02-26T13:46:03.307Z,1.80
2023-02-26T13:48:42.164Z,1.50
2023-02-26T13:51:15.657Z,1.10
2023-02-26T13:53:53.656Z,2.40
2023-02-26T13:56:25.118Z,1.60
2023-02-26T13:58:55.552Z,1.50
2023-02-26T14:01:30.544Z,1.60
2023-02-26T14:04:24.499Z,1.40
2023-02-26T14:06:54.324Z,1.77
2023-02-26T14:09:51.783Z,1.30
2023-02-26T14:12:36.187Z,1.30
2023-02-26T14:15:21.661Z,1.20
2023-02-26T14:17:52.205Z,1.30
2023-02-26T14:20:24.179Z,1.23
2023-02-26T14:23:00.616Z,1.05
2023-02-26T14:25:36.159Z,1.00
2023-02-26T14:28:44.199Z,1.10
2023-02-26T14:31:19.815Z,0.93
2023-02-26T14:33:59.844Z,0.90
2023-02-26T14:36:35.951Z,1.02
2023-02-26T14:39:09.349Z,1.00
2023-02-26T14:41:41.426Z,0.90
2023-02-26T14:44:16.552Z,1.10
2023-02-26T14:46:46.480Z,0.90
2023-02-26T14:49:19.601Z,0.90
2023-02-26T14:52:01.961Z,1.35
2023-02-26T14:54:45.337Z,0.95
2023-02-26T14:57:25.436Z,1.00
2023-02-26T15:00:13.189Z,0.90
2023-02-26T15:03:05.074Z,1.00
2023-02-26T15:05:51.137Z,0.90
2023-02-26T15:08:35.539Z,1.05
2023-02-26T15:11:33.388Z,1.08
2023-02-26T15:14:23.199Z,1.00
2023-02-26T15:17:04.415Z,0.98
2023-02-26T15:19:44.646Z,1.00
2023-02-26T15:22:33.813Z,1.02
2023-02-26T15:25:03.493Z,1.02
2023-02-26T15:27:34.770Z,1.00
2023-02-26T15:30:05.683Z,1.08
2023-02-26T15:32:41.061Z,1.00
2023-02-26T15:35:17.474Z,1.05
2023-02-26T15:37:51.182Z,1.00
2023-02-26T15:40:21.050Z,0.90
2023-02-26T15:42:52.677Z,1.00
2023-02-26T15:45:27.484Z,1.05
2023-02-26T15:47:58.850Z,1.00
2023-02-26T15:50:30.337Z,1.10
2023-02-26T15:53:02.019Z,1.20
2023-02-26T15:55:34.881Z,1.10
2023-02-26T15:58:05.152Z,1.20
2023-02-26T16:00:37.807Z,1.10
2023-02-26T16:03:06.282Z,1.02
2023-02-26T16:05:34.804Z,0.90
2023-02-26T16:08:03.324Z,1.00
2023-02-26T16:10:38.255Z,1.10
2023-02-26T16:13:08.641Z,1.10
2023-02-26T16:15:40.958Z,1.10
2023-02-26T16:18:14.456Z,1.00
2023-02-26T16:20:45.387Z,1.40
2023-02-26T16:23:16.577Z,1.15
2023-02-26T16:25:51.304Z,1.17
2023-02-26T16:28:23.260Z,1.50
2023-02-26T16:30:56.110Z,1.60
2023-02-26T16:33:26.594Z,1.33
2023-02-26T16:35:56.423Z,1.30
2023-02-26T16:38:28.358Z,1.40
2023-02-26T16:41:00.513Z,1.40
2023-02-26T16:43:36.867Z,1.48
2023-02-26T16:46:07.187Z,1.38
2023-02-26T16:48:44.134Z,1.42
2023-02-26T16:51:15.795Z,1.20
2023-02-26T16:53:48.486Z,1.30
2023-02-26T16:56:19.585Z,1.20
2023-02-26T16:58:55.757Z,1.27
2023-02-26T17:01:26.134Z,1.20
2023-02-26T17:04:02.199Z,1.20
2023-02-26T17:06:32.244Z,1.42
2023-02-26T17:09:03.010Z,1.30
2023-02-26T17:11:33.623Z,1.10
2023-02-26T17:14:19.033Z,1.10
2023-02-26T17:16:52.530Z,1.35
2023-02-26T17:19:21.061Z,1.38
2023-02-26T17:21:51.476Z,1.30
2023-02-26T17:24:22.605Z,1.10
2023-02-26T17:26:52.012Z,1.20
2023-02-26T17:29:31.085Z,1.38
2023-02-26T17:32:01.167Z,1.20
2023-02-26T17:34:29.695Z,1.25
2023-02-26T17:36:59.719Z,1.20
2023-02-26T17:39:29.197Z,1.10
2023-02-26T17:41:57.673Z,1.33
2023-02-26T17:44:26.656Z,1.27
2023-02-26T17:46:55.199Z,1.20
2023-02-26T17:49:25.100Z,1.10
2023-02-26T17:51:54.126Z,1.05
2023-02-26T17:54:22.590Z,1.17
2023-02-26T17:57:51.738Z,1.02
2023-02-26T18:00:20.967Z,1.20
2023-02-26T18:02:50.648Z,1.15
2023-02-26T18:05:19.413Z,1.25
2023-02-26T18:07:48.251Z,1.10
2023-02-26T18:10:19.692Z,1.20
2023-02-26T18:12:48.087Z,1.20
2023-02-26T18:15:18.298Z,1.33
2023-02-26T18:17:46.793Z,1.35
2023-02-26T18:20:19.623Z,1.38
2023-02-26T18:22:48.860Z,1.30
2023-02-26T18:25:18.245Z,1.50
2023-02-26T18:27:51.069Z,1.52
2023-02-26T18:30:27.567Z,1.60
2023-02-26T18:32:56.762Z,1.70
2023-02-26T18:35:27.360Z,1.65
2023-02-26T18:37:57.032Z,1.60
2023-02-26T18:40:28.123Z,1.85
2023-02-26T18:42:56.831Z,1.73
2023-02-26T18:45:26.885Z,1.50
2023-02-26T18:47:55.322Z,1.88
2023-02-26T18:50:24.003Z,1.90
2023-02-26T18:52:52.467Z,1.80
2023-02-26T18:55:20.993Z,1.63
2023-02-26T18:57:49.568Z,2.10
2023-02-26T19:00:18.670Z,1.88
2023-02-26T19:02:48.625Z,1.73
2023-02-26T19:05:23.129Z,1.92
2023-02-26T19:07:52.393Z,1.88
2023-02-26T19:10:21.894Z,1.77
2023-02-26T19:12:51.454Z,1.80
2023-02-26T19:15:20.108Z,2.00
2023-02-26T19:17:49.992Z,1.65
2023-02-26T19:20:19.081Z,1.73
2023-02-26T19:22:47.546Z,1.75
2023-02-26T19:25:16.090Z,1.58
2023-02-26T19:27:44.784Z,1.65
2023-02-26T19:30:13.873Z,1.60
2023-02-26T19:32:42.478Z,1.60
2023-02-26T19:35:12.656Z,1.58
2023-02-26T19:37:41.209Z,2.03
2023-02-26T19:40:13.536Z,1.95
2023-02-26T19:42:42.136Z,1.63
2023-02-26T19:45:11.671Z,1.80
2023-02-26T19:47:40.439Z,1.90
2023-02-26T19:50:10.793Z,1.70
2023-02-26T19:52:43.492Z,1.80
2023-02-26T19:55:14.441Z,1.50
2023-02-26T19:57:43.122Z,1.60
2023-02-26T20:00:14.164Z,1.63
2023-02-26T20:02:43.127Z,1.70
2023-02-26T20:05:16.902Z,1.70
2023-02-26T20:07:48.239Z,1.90
2023-02-26T20:10:16.865Z,1.98
2023-02-26T20:12:46.529Z,2.20
2023-02-26T20:15:15.258Z,1.98
2023-02-26T20:17:43.899Z,2.20
2023-02-26T20:20:13.122Z,2.45
2023-02-26T20:22:41.798Z,2.13
2023-02-26T20:25:11.875Z,2.55
2023-02-26T20:27:40.413Z,2.47
2023-02-26T20:30:10.362Z,2.47
2023-02-26T20:32:39.086Z,2.60
2023-02-26T20:35:08.542Z,2.30
2023-02-26T20:37:37.053Z,2.10
2023-02-26T20:40:08.216Z,2.17
2023-02-26T20:42:38.313Z,2.35
2023-02-26T20:45:08.637Z,1.90
2023-02-26T20:47:37.144Z,1.98
2023-02-26T20:50:06.553Z,2.10
2023-02-26T20:52:35.071Z,1.90
2023-02-26T20:55:03.739Z,2.20
2023-02-26T20:57:32.549Z,2.55
2023-02-26T21:00:09.840Z,2.00
2023-02-26T21:02:38.655Z,2.03
2023-02-26T21:05:08.314Z,2.75
2023-02-26T21:07:37.461Z,3.15
2023-02-26T21:10:07.046Z,2.78
2023-02-26T21:12:35.596Z,2.58
2023-02-26T21:15:07.272Z,2.17
2023-02-26T21:17:35.814Z,2.15
2023-02-26T21:20:06.104Z,2.38
2023-02-26T21:22:35.452Z,2.30
2023-02-26T21:25:06.008Z,2.17
2023-02-26T21:27:34.688Z,2.10
2023-02-26T21:30:03.600Z,1.95
2023-02-26T21:32:33.982Z,1.92
2023-02-26T21:35:02.463Z,1.92
2023-02-26T21:37:30.976Z,1.70
2023-02-26T21:39:59.376Z,2.00
2023-02-26T21:42:27.791Z,2.03
2023-02-26T21:44:56.264Z,1.70
2023-02-26T21:47:24.880Z,1.77
2023-02-26T21:49:54.773Z,1.58
2023-02-26T21:52:28.640Z,1.67
2023-02-26T21:54:57.922Z,1.80
2023-02-26T21:57:27.120Z,1.67
2023-02-26T21:59:55.656Z,1.60
2023-02-26T22:02:24.217Z,1.95
2023-02-26T22:04:54.162Z,1.73
2023-02-26T22:07:22.609Z,1.70
2023-02-26T22:09:51.786Z,1.75
2023-02-26T22:12:20.418Z,1.63
2023-02-26T22:14:49.425Z,1.60
2023-02-26T22:17:17.841Z,1.70
2023-02-26T22:19:46.309Z,1.45
2023-02-26T22:22:16.735Z,1.45
2023-02-26T22:24:45.586Z,1.60
2023-02-26T22:27:13.988Z,1.70
2023-02-26T22:29:42.535Z,1.52
2023-02-26T22:32:11.082Z,1.75
2023-02-26T22:34:39.648Z,1.50
2023-02-26T22:37:08.151Z,1.40
2023-02-26T22:39:38.076Z,1.60
2023-02-26T22:42:06.545Z,1.45
2023-02-26T22:44:36.070Z,1.55
2023-02-26T22:47:04.732Z,1.33
2023-02-26T22:49:33.199Z,1.40
2023-02-26T22:52:01.659Z,1.50
2023-02-26T22:54:30.321Z,1.58
2023-02-26T22:57:00.159Z,1.50
2023-02-26T22:59:28.699Z,1.73
2023-02-26T23:01:57.208Z,1.60
2023-02-26T23:04:25.831Z,1.90
2023-02-26T23:06:54.323Z,2.00
2023-02-26T23:09:22.836Z,1.70
2023-02-26T23:11:51.999Z,1.60
2023-02-26T23:14:21.896Z,1.80
2023-02-26T23:16:50.459Z,1.73
2023-02-26T23:19:19.301Z,1.90
2023-02-26T23:21:47.800Z,1.75
2023-02-26T23:24:16.229Z,1.88
2023-02-26T23:26:44.933Z,1.60
2023-02-26T23:29:13.418Z,2.10
2023-02-26T23:31:43.553Z,2.00
2023-02-26T23:34:12.248Z,1.83
2023-02-26T23:36:40.696Z,1.70
2023-02-26T23:39:09.755Z,1.50
2023-02-26T23:41:38.260Z,1.80
2023-02-26T23:44:06.719Z,1.77
2023-02-26T23:46:35.179Z,1.90
2023-02-26T23:49:05.142Z,1.80
2023-02-26T23:51:33.612Z,1.73
2023-02-26T23:54:02.082Z,1.58
2023-02-26T23:56:30.476Z,1.60
2023-02-26T23:58:58.945Z,1.90
